Time;durP1;ratioP1;P1;durP2;ratioP2;P2;SDS_P1;SDS_P2;PMS_P1;PMS_P2;Temp;Humidity;BMP_temperature;BMP_pressure;BME280_temperature;BME280_humidity;BME280_pressure;Samples;Min_cycle;Max_cycle;Signal;HPM_P1;HPM_P2
2021/09/03 00:00:10;;;;;;;5.80;3.92;;;17.20;58.20;;;;;;5037311;28;20033;-74
2021/09/03 00:02:37;;;;;;;6.15;3.42;;;17.20;58.60;;;;;;5055408;28;20028;-74
2021/09/03 00:05:06;;;;;;;5.68;3.58;;;17.20;58.60;;;;;;5060036;28;20025;-74
2021/09/03 00:07:32;;;;;;;4.35;3.45;;;17.20;58.80;;;;;;5050719;28;20454;-74
2021/09/03 00:09:58;;;;;;;5.28;3.10;;;17.20;58.80;;;;;;5055254;28;20100;-74
2021/09/03 00:12:24;;;;;;;7.50;3.30;;;17.10;58.60;;;;;;5055018;28;20040;-74
2021/09/03 00:14:50;;;;;;;3.58;2.63;;;17.10;58.50;;;;;;5055190;28;20024;-74
2021/09/03 00:17:16;;;;;;;9.00;3.28;;;17.10;58.50;;;;;;5040788;28;20033;-74
2021/09/03 00:19:42;;;;;;;5.32;3.65;;;17.10;58.70;;;;;;5054987;28;20021;-74
2021/09/03 00:22:07;;;;;;;5.68;3.83;;;17.00;58.60;;;;;;5037033;28;20486;-74
2021/09/03 00:24:33;;;;;;;7.68;3.65;;;17.00;58.80;;;;;;5054920;28;20086;-74
2021/09/03 00:26:59;;;;;;;5.10;3.47;;;17.00;58.70;;;;;;5037011;28;20032;-74
2021/09/03 00:29:24;;;;;;;5.57;3.65;;;17.00;59.00;;;;;;5054714;28;20037;-74
2021/09/03 00:31:50;;;;;;;6.20;3.50;;;17.00;59.10;;;;;;5054826;28;20486;-74
2021/09/03 00:34:16;;;;;;;4.50;3.50;;;16.90;59.10;;;;;;5036830;28;20156;-74
2021/09/03 00:36:47;;;;;;;4.55;3.08;;;16.90;58.90;;;;;;5054667;28;20029;-74
2021/09/03 00:39:12;;;;;;;4.70;3.42;;;16.90;59.10;;;;;;5037323;28;20032;-74
2021/09/03 00:41:38;;;;;;;5.07;2.60;;;16.90;58.90;;;;;;5054314;28;20029;-74
2021/09/03 00:44:04;;;;;;;5.13;3.35;;;16.80;58.80;;;;;;5054325;28;20024;-74
2021/09/03 00:46:30;;;;;;;5.85;3.88;;;16.80;59.00;;;;;;5054448;28;20496;-74
2021/09/03 00:48:57;;;;;;;9.77;3.70;;;16.80;59.00;;;;;;5054584;28;20375;-74
2021/09/03 00:51:24;;;;;;;5.00;3.63;;;16.80;59.10;;;;;;5049724;28;20028;-74
2021/09/03 00:53:51;;;;;;;4.78;3.38;;;16.80;59.30;;;;;;5048581;28;20021;-74
2021/09/03 00:56:17;;;;;;;5.13;3.58;;;16.80;59.40;;;;;;5049785;28;20028;-74
2021/09/03 00:58:42;;;;;;;7.22;4.13;;;16.70;59.50;;;;;;5052986;28;20079;-74
2021/09/03 01:01:09;;;;;;;6.32;3.60;;;16.70;59.50;;;;;;5054190;28;20021;-74
2021/09/03 01:03:35;;;;;;;5.35;3.80;;;16.70;59.50;;;;;;5053900;28;20036;-74
2021/09/03 01:06:03;;;;;;;5.65;3.40;;;16.70;59.40;;;;;;5054362;28;20482;-74
2021/09/03 01:08:30;;;;;;;5.07;3.28;;;16.70;59.70;;;;;;5053800;28;20478;-74
2021/09/03 01:10:56;;;;;;;4.53;3.20;;;16.70;59.60;;;;;;5036036;28;20024;-74
2021/09/03 01:13:22;;;;;;;4.63;3.50;;;16.70;59.60;;;;;;5054165;28;20033;-74
2021/09/03 01:15:47;;;;;;;4.32;3.08;;;16.60;60.40;;;;;;5049151;28;20033;-74
2021/09/03 01:18:13;;;;;;;5.38;3.53;;;16.60;59.50;;;;;;5050163;28;20108;-74
2021/09/03 01:20:39;;;;;;;6.28;3.30;;;16.60;59.70;;;;;;5053755;28;20497;-74
2021/09/03 01:23:05;;;;;;;5.50;2.67;;;16.60;59.80;;;;;;5025703;28;20063;-74
2021/09/03 01:25:31;;;;;;;4.13;3.15;;;16.60;59.70;;;;;;5053723;28;20033;-74
2021/09/03 01:27:56;;;;;;;4.10;3.22;;;16.60;59.90;;;;;;5053986;28;20036;-74
2021/09/03 01:30:22;;;;;;;4.28;2.95;;;16.60;59.80;;;;;;5053175;28;20045;-74
2021/09/03 01:32:49;;;;;;;4.72;3.50;;;16.50;59.80;;;;;;5053405;28;20041;-74
2021/09/03 01:35:15;;;;;;;7.13;3.70;;;16.50;59.70;;;;;;5053504;28;20070;-74
2021/09/03 01:37:41;;;;;;;8.50;3.40;;;16.50;59.80;;;;;;5053523;28;20024;-74
2021/09/03 01:40:08;;;;;;;8.90;3.70;;;16.50;59.90;;;;;;5053000;28;20021;-74
2021/09/03 01:42:35;;;;;;;4.97;3.50;;;16.50;59.90;;;;;;5053543;28;20028;-74
2021/09/03 01:45:01;;;;;;;5.75;2.90;;;16.50;59.90;;;;;;5053035;28;20017;-74
2021/09/03 01:47:26;;;;;;;4.57;3.10;;;16.40;59.80;;;;;;5053305;28;20482;-74
2021/09/03 01:49:52;;;;;;;4.80;3.80;;;16.40;59.90;;;;;;5053321;28;20112;-74
2021/09/03 01:52:18;;;;;;;7.68;3.83;;;16.40;60.10;;;;;;5053121;28;20057;-74
2021/09/03 01:54:44;;;;;;;5.25;3.33;;;16.40;60.20;;;;;;5052898;28;20033;-74
2021/09/03 01:57:09;;;;;;;5.65;3.88;;;16.40;60.20;;;;;;5052725;28;20021;-74
2021/09/03 01:59:35;;;;;;;4.82;3.67;;;16.50;60.20;;;;;;5053181;28;20025;-74
2021/09/03 02:02:01;;;;;;;7.13;3.70;;;16.50;60.10;;;;;;5052951;28;20064;-74
2021/09/03 02:04:26;;;;;;;5.25;3.67;;;16.50;60.00;;;;;;5052740;28;20017;-74
2021/09/03 02:06:52;;;;;;;4.22;3.20;;;16.50;59.90;;;;;;5053038;28;20029;-74
2021/09/03 02:09:18;;;;;;;6.10;3.28;;;16.60;59.70;;;;;;5052426;28;20029;-74
2021/09/03 02:11:44;;;;;;;7.05;3.35;;;16.70;59.70;;;;;;5052687;28;20100;-74
2021/09/03 02:14:09;;;;;;;8.18;3.05;;;16.70;59.60;;;;;;5052699;28;20036;-74
2021/09/03 02:16:35;;;;;;;6.88;3.63;;;16.70;59.40;;;;;;5052774;28;20126;-74
2021/09/03 02:19:01;;;;;;;5.18;3.47;;;16.70;59.50;;;;;;5052736;28;20029;-74
2021/09/03 02:21:27;;;;;;;6.30;4.10;;;16.70;59.40;;;;;;5052728;28;20071;-74
2021/09/03 02:23:53;;;;;;;5.80;3.88;;;16.70;59.40;;;;;;5052577;28;20017;-74
2021/09/03 02:26:19;;;;;;;7.90;4.00;;;16.70;59.40;;;;;;5052276;28;20036;-74
2021/09/03 02:28:44;;;;;;;9.07;4.40;;;16.70;59.40;;;;;;5052169;28;20017;-74
2021/09/03 02:31:10;;;;;;;8.70;4.43;;;16.70;59.50;;;;;;5052229;28;20118;-74
2021/09/03 02:33:36;;;;;;;6.45;4.30;;;16.70;59.40;;;;;;5034930;28;20032;-74
2021/09/03 02:36:03;;;;;;;7.15;3.92;;;16.70;59.30;;;;;;5052019;28;20047;-74
2021/09/03 02:38:28;;;;;;;5.45;4.10;;;16.70;59.30;;;;;;5052224;28;20510;-74
2021/09/03 02:40:54;;;;;;;4.80;3.45;;;16.70;59.40;;;;;;5034467;28;20063;-74
2021/09/03 02:43:20;;;;;;;7.43;3.60;;;16.70;59.20;;;;;;5052548;28;20099;-74
2021/09/03 02:45:47;;;;;;;5.00;3.70;;;16.80;59.30;;;;;;5052347;28;20047;-74
2021/09/03 02:48:12;;;;;;;3.88;3.10;;;16.80;59.10;;;;;;5034374;28;20043;-74
2021/09/03 02:50:38;;;;;;;5.10;3.30;;;16.80;59.00;;;;;;5052370;28;20013;-74
2021/09/03 02:53:04;;;;;;;5.72;3.95;;;16.80;58.90;;;;;;5042967;28;20052;-74
2021/09/03 02:55:29;;;;;;;8.30;3.67;;;16.80;59.00;;;;;;5051416;28;20478;-74
2021/09/03 02:57:57;;;;;;;4.78;3.60;;;16.80;58.90;;;;;;5051824;28;20021;-74
2021/09/03 03:00:24;;;;;;;5.93;3.88;;;16.80;59.00;;;;;;5034131;28;20025;-74
2021/09/03 03:02:52;;;;;;;5.05;3.72;;;16.80;58.90;;;;;;5034289;28;20067;-74
2021/09/03 03:05:19;;;;;;;5.60;3.83;;;16.70;58.80;;;;;;5052154;28;20378;-74
2021/09/03 03:07:45;;;;;;;5.93;4.07;;;16.80;59.00;;;;;;5047499;28;20028;-74
2021/09/03 03:10:11;;;;;;;6.05;3.65;;;16.70;58.90;;;;;;5050952;28;20021;-74
2021/09/03 03:12:37;;;;;;;6.70;3.90;;;16.70;59.00;;;;;;5051784;28;20025;-74
2021/09/03 03:15:04;;;;;;;8.52;3.95;;;16.70;59.00;;;;;;5050651;28;20039;-74
2021/09/03 03:17:30;;;;;;;8.23;3.78;;;16.70;59.00;;;;;;5051700;28;20040;-74
2021/09/03 03:19:56;;;;;;;5.97;3.67;;;16.70;58.80;;;;;;5052198;28;20021;-74
2021/09/03 03:22:22;;;;;;;6.60;3.90;;;16.70;58.80;;;;;;5038216;28;20462;-74
2021/09/03 03:24:47;;;;;;;6.85;4.15;;;16.70;58.70;;;;;;5051421;28;20021;-74
2021/09/03 03:27:13;;;;;;;4.57;3.30;;;16.80;58.90;;;;;;5055642;28;20033;-74
2021/09/03 03:29:39;;;;;;;4.97;3.97;;;16.70;58.70;;;;;;5055420;28;20041;-74
2021/09/03 03:32:05;;;;;;;7.40;3.75;;;16.80;58.70;;;;;;5055776;28;20413;-74
2021/09/03 03:34:31;;;;;;;5.72;3.58;;;16.80;58.60;;;;;;5038052;28;20456;-75
2021/09/03 03:36:56;;;;;;;6.05;3.45;;;16.80;58.60;;;;;;5055528;28;20108;-74
2021/09/03 03:39:22;;;;;;;4.75;3.50;;;16.80;58.60;;;;;;5053430;28;20436;-74
2021/09/03 03:41:48;;;;;;;5.53;2.92;;;16.80;59.10;;;;;;5050834;28;20044;-74
2021/09/03 03:44:14;;;;;;;5.50;3.13;;;16.80;58.50;;;;;;5052113;28;20037;-74
2021/09/03 03:46:39;;;;;;;4.38;3.03;;;16.70;58.40;;;;;;5055496;28;20052;-74
2021/09/03 03:49:05;;;;;;;5.13;3.40;;;16.80;58.50;;;;;;5055509;28;20052;-74
2021/09/03 03:51:31;;;;;;;4.68;3.08;;;16.70;58.50;;;;;;5037567;28;20032;-74
2021/09/03 03:53:57;;;;;;;6.05;3.83;;;16.70;58.50;;;;;;5037540;28;20124;-74
2021/09/03 03:56:22;;;;;;;5.78;3.40;;;16.70;58.60;;;;;;5055401;28;20442;-74
2021/09/03 03:58:48;;;;;;;5.18;3.80;;;16.60;58.60;;;;;;5055263;28;20474;-74
2021/09/03 04:01:14;;;;;;;5.60;3.88;;;16.60;58.80;;;;;;5055184;28;20493;-74
2021/09/03 04:03:40;;;;;;;5.65;3.90;;;16.60;58.90;;;;;;5055310;28;20025;-74
2021/09/03 04:06:05;;;;;;;6.07;3.70;;;16.60;59.50;;;;;;5051912;28;20029;-74
2021/09/03 04:08:31;;;;;;;5.70;3.40;;;16.50;59.10;;;;;;5054712;28;20024;-74
2021/09/03 04:10:57;;;;;;;8.27;3.63;;;16.50;59.10;;;;;;5036912;28;20139;-74
2021/09/03 04:13:23;;;;;;;6.28;4.05;;;16.50;59.50;;;;;;5054689;28;20490;-74
2021/09/03 04:15:49;;;;;;;6.38;3.95;;;16.40;59.60;;;;;;5054821;28;20041;-74
2021/09/03 04:18:15;;;;;;;10.27;4.25;;;16.40;59.90;;;;;;5054909;28;20103;-74
2021/09/03 04:20:41;;;;;;;6.68;4.05;;;16.40;59.90;;;;;;5054903;28;20496;-74
2021/09/03 04:23:09;;;;;;;9.30;4.53;;;16.40;59.90;;;;;;5054866;28;20025;-74
2021/09/03 04:25:35;;;;;;;7.15;4.50;;;16.40;60.40;;;;;;5036764;28;20021;-74
2021/09/03 04:28:01;;;;;;;8.52;3.70;;;16.40;60.60;;;;;;5054179;28;20040;-73
2021/09/03 04:30:27;;;;;;;8.32;3.75;;;16.30;60.40;;;;;;5054301;28;20063;-74
2021/09/03 04:32:53;;;;;;;7.28;5.00;;;16.30;60.80;;;;;;5054316;28;20095;-74
2021/09/03 04:35:19;;;;;;;10.15;4.88;;;16.30;61.00;;;;;;5041188;28;20080;-74
2021/09/03 04:37:49;;;;;;;6.35;4.20;;;16.20;61.20;;;;;;5041754;28;20024;-74
2021/09/03 04:40:17;;;;;;;9.88;4.78;;;16.20;60.90;;;;;;5040388;28;20021;-74
2021/09/03 04:42:43;;;;;;;13.82;4.93;;;16.30;61.40;;;;;;5037392;28;20522;-74
2021/09/03 04:45:10;;;;;;;13.13;6.47;;;16.20;61.50;;;;;;5054292;28;20021;-74
2021/09/03 04:47:37;;;;;;;13.52;6.47;;;16.20;61.50;;;;;;5054189;28;20049;-74
2021/09/03 04:50:05;;;;;;;14.27;6.78;;;16.20;61.80;;;;;;5054274;28;20048;-74
2021/09/03 04:52:30;;;;;;;12.77;6.20;;;16.30;62.10;;;;;;5054286;28;20043;-74
2021/09/03 04:54:56;;;;;;;13.40;6.32;;;16.30;62.20;;;;;;5052238;28;20478;-74
2021/09/03 04:57:22;;;;;;;13.38;5.95;;;16.30;62.30;;;;;;5054366;28;20037;-74
2021/09/03 04:59:48;;;;;;;12.52;5.20;;;16.30;62.10;;;;;;5054491;28;20025;-74
2021/09/03 05:02:14;;;;;;;8.95;5.20;;;16.30;61.80;;;;;;5054415;28;20382;-74
2021/09/03 05:04:40;;;;;;;8.05;5.60;;;16.40;61.80;;;;;;5054850;28;20021;-74
2021/09/03 05:07:06;;;;;;;11.55;4.95;;;16.40;61.70;;;;;;5053882;28;20025;-74
2021/09/03 05:09:31;;;;;;;12.25;5.93;;;16.50;61.60;;;;;;5053991;28;20125;-74
2021/09/03 05:11:57;;;;;;;9.50;5.50;;;16.50;61.70;;;;;;5035892;28;20107;-74
2021/09/03 05:14:23;;;;;;;14.05;5.88;;;16.50;62.10;;;;;;5040867;28;20082;-74
2021/09/03 05:16:49;;;;;;;7.72;5.10;;;16.50;62.30;;;;;;5053771;28;20100;-74
2021/09/03 05:19:15;;;;;;;10.48;5.28;;;16.50;62.00;;;;;;5053678;28;20390;-74
2021/09/03 05:21:40;;;;;;;7.95;4.78;;;16.50;61.80;;;;;;5053619;28;20033;-74
2021/09/03 05:24:07;;;;;;;7.30;4.50;;;16.60;61.80;;;;;;5053374;28;20053;-74
2021/09/03 05:26:32;;;;;;;7.35;4.20;;;16.70;61.90;;;;;;5053547;28;20052;-74
2021/09/03 05:28:58;;;;;;;9.57;5.18;;;16.70;61.80;;;;;;5053178;28;20067;-74
2021/09/03 05:31:24;;;;;;;8.07;4.43;;;16.70;61.90;;;;;;5053240;28;20063;-74
2021/09/03 05:33:50;;;;;;;9.85;4.82;;;16.70;62.00;;;;;;5053390;28;20143;-74
2021/09/03 05:36:15;;;;;;;6.72;4.00;;;16.80;61.90;;;;;;5053204;28;20017;-74
2021/09/03 05:38:41;;;;;;;9.15;4.30;;;16.80;61.70;;;;;;5053589;28;20021;-74
2021/09/03 05:41:07;;;;;;;6.10;4.15;;;16.80;61.70;;;;;;5035624;28;20031;-74
2021/09/03 05:43:33;;;;;;;10.93;5.20;;;16.80;61.60;;;;;;5052571;28;20470;-74
2021/09/03 05:45:58;;;;;;;8.95;4.35;;;16.90;61.70;;;;;;5052521;28;20044;-74
2021/09/03 05:48:24;;;;;;;7.28;5.07;;;16.90;61.70;;;;;;5051063;28;20083;-74
2021/09/03 05:50:50;;;;;;;9.13;5.32;;;17.00;61.70;;;;;;5035247;28;20024;-74
2021/09/03 05:53:16;;;;;;;16.90;6.55;;;17.00;61.70;;;;;;5053151;28;20036;-74
2021/09/03 05:55:42;;;;;;;12.68;6.00;;;17.10;61.70;;;;;;5050564;28;20044;-74
2021/09/03 05:58:08;;;;;;;16.42;7.50;;;17.10;61.50;;;;;;5052993;28;20033;-74
2021/09/03 06:00:34;;;;;;;13.40;6.00;;;17.10;61.50;;;;;;5053005;28;20017;-74
2021/09/03 06:02:59;;;;;;;16.88;5.03;;;17.20;61.60;;;;;;5042177;28;20047;-74
2021/09/03 06:05:26;;;;;;;20.95;5.80;;;17.20;61.50;;;;;;5052776;28;20033;-74
2021/09/03 06:07:52;;;;;;;13.13;5.57;;;17.30;61.60;;;;;;5052981;28;20025;-74
2021/09/03 06:10:18;;;;;;;12.38;6.20;;;17.30;61.70;;;;;;5052755;28;20351;-74
2021/09/03 06:12:43;;;;;;;16.90;5.97;;;17.30;61.70;;;;;;5052776;28;20067;-74
2021/09/03 06:15:10;;;;;;;8.15;5.28;;;17.40;61.60;;;;;;5052765;28;20021;-74
2021/09/03 06:17:36;;;;;;;16.67;7.40;;;17.50;62.20;;;;;;5061882;28;20029;-74
2021/09/03 06:20:07;;;;;;;11.27;6.55;;;17.50;61.20;;;;;;5054965;28;20079;-74
2021/09/03 06:22:33;;;;;;;11.43;7.53;;;17.60;61.00;;;;;;5042630;28;20431;-74
2021/09/03 06:24:59;;;;;;;13.40;7.28;;;17.70;61.00;;;;;;5052692;28;20017;-74
2021/09/03 06:27:25;;;;;;;13.63;6.72;;;17.70;61.00;;;;;;5049401;28;20047;-74
2021/09/03 06:29:53;;;;;;;19.75;7.20;;;17.80;61.00;;;;;;5052403;28;20096;-74
2021/09/03 06:32:20;;;;;;;12.75;6.68;;;17.80;60.80;;;;;;5049119;28;20021;-74
2021/09/03 06:34:48;;;;;;;13.95;7.47;;;17.90;60.70;;;;;;5052009;28;20044;-74
2021/09/03 06:37:15;;;;;;;16.98;8.70;;;18.00;60.70;;;;;;5051959;28;20021;-74
2021/09/03 06:39:41;;;;;;;13.38;7.13;;;18.00;60.40;;;;;;5052551;28;20383;-74
2021/09/03 06:42:07;;;;;;;10.73;5.93;;;18.10;60.30;;;;;;5033957;28;20021;-74
2021/09/03 06:44:34;;;;;;;11.10;6.90;;;18.10;60.20;;;;;;5052464;28;20054;-73
2021/09/03 06:47:00;;;;;;;19.77;7.38;;;18.20;60.10;;;;;;5051633;28;20040;-74
2021/09/03 06:49:26;;;;;;;18.10;7.20;;;18.30;60.20;;;;;;5052208;28;20025;-74
2021/09/03 06:51:52;;;;;;;16.35;8.05;;;18.30;60.10;;;;;;5052380;28;20036;-74
2021/09/03 06:54:18;;;;;;;13.02;7.38;;;18.40;60.00;;;;;;5052197;28;20024;-74
2021/09/03 06:56:44;;;;;;;20.60;8.05;;;18.50;59.90;;;;;;5052265;28;20024;-74
2021/09/03 06:59:10;;;;;;;14.98;7.75;;;18.60;59.80;;;;;;5052270;28;20025;-74
2021/09/03 07:01:36;;;;;;;17.08;8.18;;;18.60;59.70;;;;;;5052225;28;20017;-74
2021/09/03 07:04:02;;;;;;;17.17;7.93;;;18.70;59.50;;;;;;5051785;28;20068;-74
2021/09/03 07:06:28;;;;;;;15.45;7.95;;;18.80;59.50;;;;;;5052131;28;20481;-74
2021/09/03 07:08:54;;;;;;;19.90;8.68;;;18.90;59.40;;;;;;5051991;28;20028;-74
2021/09/03 07:11:20;;;;;;;18.80;7.47;;;19.00;59.30;;;;;;5051979;28;20029;-74
2021/09/03 07:13:46;;;;;;;20.17;7.15;;;19.00;59.10;;;;;;5052174;28;20025;-73
2021/09/03 07:16:11;;;;;;;11.05;6.85;;;19.10;59.00;;;;;;5051882;28;20069;-73
2021/09/03 07:18:37;;;;;;;11.50;7.10;;;19.20;59.00;;;;;;5052021;28;20017;-73
2021/09/03 07:21:03;;;;;;;10.77;6.25;;;19.20;58.90;;;;;;5051781;28;20021;-73
2021/09/03 07:23:29;;;;;;;11.75;6.53;;;19.40;58.80;;;;;;5033977;28;20017;-74
2021/09/03 07:25:54;;;;;;;20.35;7.97;;;19.40;58.60;;;;;;5030423;28;20482;-73
2021/09/03 07:28:20;;;;;;;21.30;7.65;;;19.50;58.90;;;;;;5051662;28;20594;-74
2021/09/03 07:30:46;;;;;;;15.68;7.45;;;19.60;58.20;;;;;;5033965;28;20056;-74
2021/09/03 07:33:12;;;;;;;15.18;7.13;;;19.60;58.10;;;;;;5051697;28;20025;-74
2021/09/03 07:35:38;;;;;;;12.90;7.82;;;19.60;57.90;;;;;;5033867;28;20040;-74
2021/09/03 07:38:04;;;;;;;14.98;8.10;;;19.80;57.90;;;;;;5051503;28;20017;-74
2021/09/03 07:40:32;;;;;;;14.10;7.30;;;19.80;57.70;;;;;;5033892;28;20017;-74
2021/09/03 07:43:06;;;;;;;10.57;6.07;;;19.90;57.70;;;;;;5051852;28;20071;-74
2021/09/03 07:45:35;;;;;;;;;;;20.00;57.50;;;;;;5052171;28;20021;-74
2021/09/03 07:48:02;;;;;;;13.13;6.75;;;20.10;57.80;;;;;;5051714;28;19909;-74
2021/09/03 07:50:27;;;;;;;15.68;7.55;;;20.20;57.10;;;;;;5051748;28;20031;-74
2021/09/03 07:52:53;;;;;;;13.90;7.10;;;20.20;56.70;;;;;;5051737;28;20100;-74
2021/09/03 07:55:19;;;;;;;16.63;7.70;;;20.30;56.70;;;;;;5051687;28;20025;-74
2021/09/03 07:57:45;;;;;;;15.07;6.85;;;20.30;56.50;;;;;;5051759;28;20025;-74
2021/09/03 08:00:11;;;;;;;12.20;6.88;;;20.40;56.40;;;;;;5051763;28;20028;-74
2021/09/03 08:02:37;;;;;;;12.75;7.28;;;20.50;56.40;;;;;;5051597;28;20474;-74
2021/09/03 08:05:04;;;;;;;11.60;6.15;;;20.50;56.20;;;;;;5033699;28;20074;-74
2021/09/03 08:07:31;;;;;;;12.30;6.95;;;20.60;55.80;;;;;;5036353;28;20032;-74
2021/09/03 08:09:57;;;;;;;14.73;6.70;;;20.70;56.00;;;;;;5051097;28;20029;-74
2021/09/03 08:12:24;;;;;;;10.75;5.93;;;20.80;55.80;;;;;;5055293;28;20029;-74
2021/09/03 08:14:50;;;;;;;12.02;6.30;;;20.80;55.30;;;;;;5037172;28;20062;-74
2021/09/03 08:17:16;;;;;;;22.33;7.05;;;20.90;54.80;;;;;;5054922;28;20097;-74
2021/09/03 08:19:42;;;;;;;11.27;6.85;;;20.90;54.70;;;;;;5055156;28;20104;-74
2021/09/03 08:22:07;;;;;;;12.65;6.85;;;21.00;54.40;;;;;;5036972;28;20021;-74
2021/09/03 08:24:33;;;;;;;11.02;5.90;;;21.10;54.00;;;;;;5055027;28;20024;-74
2021/09/03 08:26:59;;;;;;;10.00;5.28;;;21.10;53.90;;;;;;5051656;28;20478;-74
2021/09/03 08:29:25;;;;;;;13.32;6.22;;;21.20;54.20;;;;;;5054783;28;20045;-74
2021/09/03 08:31:51;;;;;;;14.35;6.20;;;21.30;54.00;;;;;;5037078;28;20178;-74
2021/09/03 08:34:17;;;;;;;13.00;6.28;;;21.30;53.90;;;;;;5054903;28;20029;-74
2021/09/03 08:36:43;;;;;;;11.23;5.75;;;21.40;53.80;;;;;;5054837;28;20032;-74
2021/09/03 08:39:09;;;;;;;10.10;6.15;;;21.50;53.60;;;;;;5054686;28;20017;-74
2021/09/03 08:41:37;;;;;;;9.82;5.82;;;21.60;53.60;;;;;;5054722;28;20447;-74
2021/09/03 08:44:03;;;;;;;13.60;6.30;;;21.70;53.70;;;;;;5054591;28;20021;-74
2021/09/03 08:46:30;;;;;;;10.77;5.78;;;21.70;53.30;;;;;;5054685;28;20025;-74
2021/09/03 08:48:56;;;;;;;10.02;5.45;;;21.80;53.00;;;;;;5054718;28;20021;-74
2021/09/03 08:51:22;;;;;;;12.23;6.07;;;21.90;52.50;;;;;;5054632;28;20498;-74
2021/09/03 08:53:47;;;;;;;16.30;5.72;;;21.90;51.70;;;;;;5054659;28;20036;-74
2021/09/03 08:56:13;;;;;;;12.77;6.15;;;22.00;51.10;;;;;;5036582;28;20029;-74
2021/09/03 08:58:39;;;;;;;16.15;6.53;;;22.10;51.30;;;;;;5036589;28;20025;-74
2021/09/03 09:01:14;;;;;;;13.50;6.05;;;22.10;51.00;;;;;;5036475;28;20021;-75
2021/09/03 09:03:45;;;;;;;12.07;5.78;;;22.20;51.10;;;;;;5054465;28;20501;-75
2021/09/03 09:06:21;;;;;;;9.25;5.35;;;22.20;50.40;;;;;;5036468;28;20028;-75
2021/09/03 09:09:03;;;;;;;10.93;5.82;;;22.30;49.60;;;;;;5036544;28;20108;-74
2021/09/03 09:11:29;;;;;;;14.43;5.63;;;22.30;49.50;;;;;;5054209;28;20450;-74
2021/09/03 09:14:01;;;;;;;10.57;5.32;;;22.30;49.40;;;;;;5054082;28;20033;-74
2021/09/03 09:16:30;;;;;;;9.63;5.20;;;22.40;49.70;;;;;;5053808;28;20032;-75
2021/09/03 09:19:04;;;;;;;5.95;3.85;;;22.50;50.00;;;;;;5052966;28;20020;-74
2021/09/03 09:21:31;;;;;;;6.63;4.60;;;22.60;49.80;;;;;;5054085;28;20021;-74
2021/09/03 09:24:08;;;;;;;11.70;5.07;;;22.70;49.20;;;;;;5053998;28;20032;-74
2021/09/03 09:26:44;;;;;;;7.65;4.45;;;22.70;48.30;;;;;;5032744;28;20025;-74
2021/09/03 09:29:15;;;;;;;16.67;4.68;;;22.80;48.80;;;;;;5053994;28;20104;-75
2021/09/03 09:31:41;;;;;;;5.97;4.03;;;22.90;48.80;;;;;;5053792;28;20033;-74
2021/09/03 09:34:23;;;;;;;7.65;5.20;;;23.00;49.20;;;;;;5053639;28;20116;-75
2021/09/03 09:36:52;;;;;;;8.00;4.70;;;23.00;48.20;;;;;;5053715;28;20029;-75
2021/09/03 09:39:21;;;;;;;10.68;5.03;;;23.10;47.80;;;;;;5053908;28;20080;-74
2021/09/03 09:41:57;;;;;;;8.73;4.85;;;23.10;47.60;;;;;;5053655;28;20374;-74
2021/09/03 09:44:34;;;;;;;12.60;6.30;;;23.10;47.20;;;;;;5053698;28;20083;-74
2021/09/03 09:47:12;;;;;;;10.98;5.55;;;23.20;47.00;;;;;;5053473;28;20462;-74
2021/09/03 09:49:38;;;;;;;12.23;5.30;;;23.30;47.50;;;;;;5053712;28;20043;-75
2021/09/03 09:52:05;;;;;;;10.70;5.25;;;23.30;47.30;;;;;;5053423;28;20020;-75
2021/09/03 09:54:31;;;;;;;9.90;5.38;;;23.40;47.60;;;;;;5053412;28;20474;-74
2021/09/03 09:57:02;;;;;;;8.98;5.05;;;23.40;47.20;;;;;;5051910;28;20509;-74
2021/09/03 09:59:30;;;;;;;9.20;4.70;;;23.50;46.50;;;;;;5053347;28;20152;-74
2021/09/03 10:02:01;;;;;;;6.00;3.92;;;23.50;46.70;;;;;;5053216;28;20025;-74
2021/09/03 10:04:29;;;;;;;11.30;5.22;;;23.60;46.80;;;;;;5053465;28;20013;-74
2021/09/03 10:06:59;;;;;;;11.85;4.90;;;23.60;46.40;;;;;;5053145;28;20029;-74
2021/09/03 10:09:28;;;;;;;8.98;4.70;;;23.70;45.70;;;;;;5053031;28;20111;-74
2021/09/03 10:11:55;;;;;;;10.18;4.82;;;23.80;46.40;;;;;;5034975;28;20147;-75
2021/09/03 10:14:25;;;;;;;7.18;4.03;;;23.80;46.70;;;;;;5053116;28;20094;-74
2021/09/03 10:16:51;;;;;;;10.52;4.78;;;23.90;46.90;;;;;;5052738;28;20485;-74
2021/09/03 10:19:24;;;;;;;7.22;4.75;;;23.90;46.20;;;;;;5052859;28;20482;-75
2021/09/03 10:21:54;;;;;;;8.38;4.78;;;24.00;46.00;;;;;;5052928;28;20416;-74
2021/09/03 10:24:25;;;;;;;9.57;4.43;;;24.00;46.00;;;;;;5036601;28;20016;-75
2021/09/03 10:26:55;;;;;;;11.82;5.28;;;24.00;45.10;;;;;;5049561;28;20044;-74
2021/09/03 10:29:48;;;;;;;8.15;4.05;;;24.10;45.50;;;;;;5034279;28;20077;-74
2021/09/03 10:32:24;;;;;;;7.72;4.60;;;24.10;45.40;;;;;;5052463;28;20036;-74
2021/09/03 10:34:54;;;;;;;9.32;6.18;;;24.20;45.40;;;;;;5052590;28;20024;-74
2021/09/03 10:37:29;;;;;;;8.55;5.20;;;24.20;44.80;;;;;;5034575;28;20021;-74
2021/09/03 10:40:11;;;;;;;9.15;5.93;;;24.30;45.40;;;;;;5052413;28;20021;-74
2021/09/03 10:42:37;;;;;;;7.85;4.93;;;24.30;45.10;;;;;;5052333;28;20028;-74
2021/09/03 10:45:13;;;;;;;8.45;5.00;;;24.40;45.00;;;;;;5052426;28;20013;-74
2021/09/03 10:47:45;;;;;;;9.38;5.18;;;24.40;44.90;;;;;;5052380;28;20024;-73
2021/09/03 10:50:24;;;;;;;9.55;5.43;;;24.50;45.00;;;;;;5052429;28;20482;-73
2021/09/03 10:53:05;;;;;;;10.50;6.50;;;24.50;45.20;;;;;;5052493;28;20025;-74
2021/09/03 10:55:52;;;;;;;11.48;5.63;;;24.50;45.10;;;;;;5052401;28;20033;-74
2021/09/03 10:58:30;;;;;;;11.25;5.50;;;24.60;44.70;;;;;;5052425;28;20421;-73
2021/09/03 11:01:11;;;;;;;12.65;5.65;;;24.60;44.60;;;;;;5052191;28;20024;-73
2021/09/03 11:03:51;;;;;;;6.82;4.85;;;24.60;45.10;;;;;;5034288;28;20029;-74
2021/09/03 11:06:26;;;;;;;6.53;4.32;;;24.70;44.90;;;;;;5052128;28;20036;-74
2021/09/03 11:08:57;;;;;;;8.75;3.80;;;24.70;44.70;;;;;;5052390;28;20466;-74
2021/09/03 11:11:25;;;;;;;4.65;3.50;;;24.80;44.60;;;;;;5052361;28;20029;-73
2021/09/03 11:13:53;;;;;;;5.35;3.45;;;24.80;45.00;;;;;;5052282;28;20108;-74
2021/09/03 11:16:34;;;;;;;6.43;4.18;;;24.80;44.40;;;;;;5034259;28;20482;-75
2021/09/03 11:19:07;;;;;;;5.40;3.80;;;24.90;44.60;;;;;;5034256;28;20024;-75
2021/09/03 11:21:42;;;;;;;6.53;3.73;;;24.90;43.60;;;;;;5052172;28;20087;-74
2021/09/03 11:24:10;;;;;;;7.10;3.30;;;25.00;44.00;;;;;;5051967;28;20432;-74
2021/09/03 11:26:38;;;;;;;5.88;3.85;;;25.00;44.30;;;;;;5048826;28;20025;-74
2021/09/03 11:29:07;;;;;;;6.00;4.45;;;25.10;43.80;;;;;;5051779;28;20017;-74
2021/09/03 11:31:35;;;;;;;5.93;3.90;;;25.10;43.50;;;;;;5051956;28;20033;-75
2021/09/03 11:34:06;;;;;;;5.30;3.60;;;25.20;43.40;;;;;;5051818;28;20035;-74
2021/09/03 11:36:50;;;;;;;5.13;3.22;;;25.20;43.90;;;;;;5052344;28;20036;-73
2021/09/03 11:39:16;;;;;;;4.78;3.33;;;25.20;43.40;;;;;;5051818;28;20028;-74
2021/09/03 11:41:50;;;;;;;5.88;3.60;;;25.30;42.60;;;;;;5053177;28;20021;-74
2021/09/03 11:44:16;;;;;;;4.30;2.80;;;25.30;42.40;;;;;;5055739;28;20087;-75
2021/09/03 11:46:42;;;;;;;7.28;3.00;;;25.40;42.80;;;;;;5055643;28;20259;-75
2021/09/03 11:49:09;;;;;;;6.20;3.38;;;25.50;42.70;;;;;;5055634;28;20059;-75
2021/09/03 11:51:35;;;;;;;4.45;2.95;;;25.50;41.30;;;;;;5055667;28;20029;-73
2021/09/03 11:54:02;;;;;;;4.13;2.90;;;25.50;41.00;;;;;;5038008;28;20067;-75
2021/09/03 11:56:28;;;;;;;3.63;2.92;;;25.50;41.50;;;;;;5055549;28;20482;-73
2021/09/03 11:58:54;;;;;;;4.55;2.80;;;25.60;41.60;;;;;;5055527;28;20036;-75
2021/09/03 12:01:22;;;;;;;4.32;2.90;;;25.70;41.60;;;;;;5055524;28;20017;-74
2021/09/03 12:03:50;;;;;;;5.43;3.00;;;25.70;41.60;;;;;;5055606;28;20017;-74
2021/09/03 12:06:18;;;;;;;4.65;3.13;;;25.70;41.00;;;;;;5055391;28;20028;-74
2021/09/03 12:08:45;;;;;;;4.97;2.85;;;25.80;40.40;;;;;;5055422;28;20021;-74
2021/09/03 12:11:19;;;;;;;8.07;3.25;;;25.80;41.00;;;;;;5055004;28;20036;-74
2021/09/03 12:13:56;;;;;;;5.70;3.28;;;25.80;40.90;;;;;;5055053;28;20518;-74
2021/09/03 12:16:27;;;;;;;5.72;2.95;;;25.90;40.80;;;;;;5039222;28;20033;-74
2021/09/03 12:18:56;;;;;;;5.35;3.42;;;25.90;40.80;;;;;;5055240;28;20017;-74
2021/09/03 12:21:33;;;;;;;4.88;3.40;;;26.00;40.00;;;;;;5055027;28;20540;-74
2021/09/03 12:24:04;;;;;;;4.00;2.90;;;26.00;40.40;;;;;;5054955;28;20021;-74
2021/09/03 12:26:51;;;;;;;4.35;3.17;;;26.00;40.10;;;;;;5051796;28;20097;-75
2021/09/03 12:29:26;;;;;;;4.53;3.25;;;26.10;40.30;;;;;;5054838;28;20045;-75
2021/09/03 12:32:00;;;;;;;3.88;2.63;;;26.10;40.20;;;;;;5055044;28;20478;-74
2021/09/03 12:34:31;;;;;;;4.85;2.85;;;26.10;40.20;;;;;;5039765;28;20429;-74
2021/09/03 12:37:00;;;;;;;4.38;3.28;;;26.20;40.50;;;;;;5054924;28;20021;-74
2021/09/03 12:39:26;;;;;;;4.15;3.10;;;26.20;40.40;;;;;;5055285;28;20021;-75
2021/09/03 12:41:52;;;;;;;3.13;2.60;;;26.20;39.80;;;;;;5055216;28;20111;-74
2021/09/03 12:44:20;;;;;;;3.53;2.63;;;26.30;39.70;;;;;;5039261;28;20028;-74